sensor_id;sensor_type;location;lat;lon;timestamp;P1;durP1;ratioP1;P2;durP2;ratioP2
35897;SDS011;21997;47.118;15.346;2023-03-03T00:00:24;11.03;;;8.20;;
35897;SDS011;21997;47.118;15.346;2023-03-03T00:02:50;12.90;;;8.30;;
35897;SDS011;21997;47.118;15.346;2023-03-03T00:05:15;12.27;;;8.37;;
35897;SDS011;21997;47.118;15.346;2023-03-03T00:07:45;12.33;;;9.03;;
35897;SDS011;21997;47.118;15.346;2023-03-03T00:10:11;12.23;;;9.07;;
35897;SDS011;21997;47.118;15.346;2023-03-03T00:12:44;11.67;;;8.53;;
35897;SDS011;21997;47.118;15.346;2023-03-03T00:15:18;11.10;;;8.20;;
35897;SDS011;21997;47.118;15.346;2023-03-03T00:17:45;12.87;;;8.37;;
35897;SDS011;21997;47.118;15.346;2023-03-03T00:23:12;13.07;;;8.87;;
35897;SDS011;21997;47.118;15.346;2023-03-03T00:25:42;12.70;;;9.03;;
35897;SDS011;21997;47.118;15.346;2023-03-03T00:30:55;14.77;;;9.10;;
35897;SDS011;21997;47.118;15.346;2023-03-03T00:35:47;11.57;;;8.53;;
35897;SDS011;21997;47.118;15.346;2023-03-03T00:38:14;15.83;;;9.77;;
35897;SDS011;21997;47.118;15.346;2023-03-03T00:40:41;11.07;;;8.07;;
35897;SDS011;21997;47.118;15.346;2023-03-03T00:43:17;10.10;;;8.13;;
35897;SDS011;21997;47.118;15.346;2023-03-03T00:45:56;9.90;;;7.83;;
35897;SDS011;21997;47.118;15.346;2023-03-03T00:50:57;11.03;;;7.93;;
35897;SDS011;21997;47.118;15.346;2023-03-03T00:53:25;12.50;;;7.97;;
35897;SDS011;21997;47.118;15.346;2023-03-03T00:55:52;11.60;;;8.37;;
35897;SDS011;21997;47.118;15.346;2023-03-03T00:58:18;10.77;;;7.83;;
35897;SDS011;21997;47.118;15.346;2023-03-03T01:00:46;10.83;;;8.13;;
35897;SDS011;21997;47.118;15.346;2023-03-03T01:03:14;11.20;;;7.77;;
35897;SDS011;21997;47.118;15.346;2023-03-03T01:05:41;12.80;;;8.60;;
35897;SDS011;21997;47.118;15.346;2023-03-03T01:08:07;10.83;;;8.17;;
35897;SDS011;21997;47.118;15.346;2023-03-03T01:10:35;11.70;;;8.20;;
35897;SDS011;21997;47.118;15.346;2023-03-03T01:13:03;9.43;;;7.90;;
35897;SDS011;21997;47.118;15.346;2023-03-03T01:15:29;10.53;;;7.90;;
35897;SDS011;21997;47.118;15.346;2023-03-03T01:17:55;12.50;;;8.43;;
35897;SDS011;21997;47.118;15.346;2023-03-03T01:20:20;12.17;;;8.30;;
35897;SDS011;21997;47.118;15.346;2023-03-03T01:22:46;13.23;;;8.07;;
35897;SDS011;21997;47.118;15.346;2023-03-03T01:25:12;12.17;;;9.43;;
35897;SDS011;21997;47.118;15.346;2023-03-03T01:27:37;11.07;;;8.10;;
35897;SDS011;21997;47.118;15.346;2023-03-03T01:30:05;11.47;;;8.03;;
35897;SDS011;21997;47.118;15.346;2023-03-03T01:32:31;12.33;;;8.50;;
35897;SDS011;21997;47.118;15.346;2023-03-03T01:34:57;12.60;;;8.43;;
35897;SDS011;21997;47.118;15.346;2023-03-03T01:37:22;10.93;;;7.57;;
35897;SDS011;21997;47.118;15.346;2023-03-03T01:39:49;10.93;;;8.33;;
35897;SDS011;21997;47.118;15.346;2023-03-03T01:42:15;12.53;;;8.20;;
35897;SDS011;21997;47.118;15.346;2023-03-03T01:44:41;11.90;;;8.30;;
35897;SDS011;21997;47.118;15.346;2023-03-03T01:47:14;12.50;;;8.20;;
35897;SDS011;21997;47.118;15.346;2023-03-03T01:54:53;11.13;;;8.43;;
35897;SDS011;21997;47.118;15.346;2023-03-03T01:57:26;11.97;;;7.83;;
35897;SDS011;21997;47.118;15.346;2023-03-03T01:59:55;10.57;;;8.57;;
35897;SDS011;21997;47.118;15.346;2023-03-03T02:02:21;11.77;;;8.07;;
35897;SDS011;21997;47.118;15.346;2023-03-03T02:04:48;13.10;;;9.33;;
35897;SDS011;21997;47.118;15.346;2023-03-03T02:07:14;15.27;;;9.53;;
35897;SDS011;21997;47.118;15.346;2023-03-03T02:12:10;13.27;;;9.90;;
35897;SDS011;21997;47.118;15.346;2023-03-03T02:14:37;15.20;;;11.43;;
35897;SDS011;21997;47.118;15.346;2023-03-03T02:17:02;13.07;;;9.90;;
35897;SDS011;21997;47.118;15.346;2023-03-03T02:21:56;16.10;;;10.20;;
35897;SDS011;21997;47.118;15.346;2023-03-03T02:24:26;12.27;;;9.43;;
35897;SDS011;21997;47.118;15.346;2023-03-03T02:26:57;13.57;;;9.90;;
35897;SDS011;21997;47.118;15.346;2023-03-03T02:29:23;14.70;;;10.30;;
35897;SDS011;21997;47.118;15.346;2023-03-03T02:31:48;14.33;;;9.47;;
35897;SDS011;21997;47.118;15.346;2023-03-03T02:34:14;12.00;;;8.80;;
35897;SDS011;21997;47.118;15.346;2023-03-03T02:36:39;12.67;;;8.53;;
35897;SDS011;21997;47.118;15.346;2023-03-03T02:41:39;12.57;;;8.63;;
35897;SDS011;21997;47.118;15.346;2023-03-03T02:44:09;11.50;;;8.20;;
35897;SDS011;21997;47.118;15.346;2023-03-03T02:46:37;10.47;;;8.43;;
35897;SDS011;21997;47.118;15.346;2023-03-03T02:49:08;11.67;;;8.80;;
35897;SDS011;21997;47.118;15.346;2023-03-03T02:51:35;14.73;;;9.37;;
35897;SDS011;21997;47.118;15.346;2023-03-03T02:54:01;11.00;;;8.93;;
35897;SDS011;21997;47.118;15.346;2023-03-03T02:56:27;12.60;;;9.00;;
35897;SDS011;21997;47.118;15.346;2023-03-03T02:58:52;11.30;;;8.90;;
35897;SDS011;21997;47.118;15.346;2023-03-03T03:01:18;12.17;;;8.70;;
35897;SDS011;21997;47.118;15.346;2023-03-03T03:03:43;13.67;;;8.60;;
35897;SDS011;21997;47.118;15.346;2023-03-03T03:06:09;11.93;;;8.50;;
35897;SDS011;21997;47.118;15.346;2023-03-03T03:08:34;11.80;;;8.30;;
35897;SDS011;21997;47.118;15.346;2023-03-03T03:11:00;13.10;;;9.40;;
35897;SDS011;21997;47.118;15.346;2023-03-03T03:13:25;13.30;;;9.17;;
35897;SDS011;21997;47.118;15.346;2023-03-03T03:15:51;13.80;;;9.47;;
35897;SDS011;21997;47.118;15.346;2023-03-03T03:18:17;14.87;;;9.57;;
35897;SDS011;21997;47.118;15.346;2023-03-03T03:20:43;9.80;;;8.37;;
35897;SDS011;21997;47.118;15.346;2023-03-03T03:23:08;13.30;;;8.70;;
35897;SDS011;21997;47.118;15.346;2023-03-03T03:25:34;11.50;;;8.40;;
35897;SDS011;21997;47.118;15.346;2023-03-03T03:28:06;14.07;;;9.07;;
35897;SDS011;21997;47.118;15.346;2023-03-03T03:30:32;11.63;;;8.43;;
35897;SDS011;21997;47.118;15.346;2023-03-03T03:32:57;13.63;;;9.60;;
35897;SDS011;21997;47.118;15.346;2023-03-03T03:35:23;11.73;;;8.93;;
35897;SDS011;21997;47.118;15.346;2023-03-03T03:37:48;13.43;;;9.60;;
35897;SDS011;21997;47.118;15.346;2023-03-03T03:40:14;12.93;;;8.57;;
35897;SDS011;21997;47.118;15.346;2023-03-03T03:42:39;12.20;;;9.00;;
35897;SDS011;21997;47.118;15.346;2023-03-03T03:45:05;13.13;;;9.27;;
35897;SDS011;21997;47.118;15.346;2023-03-03T03:47:31;13.97;;;9.77;;
35897;SDS011;21997;47.118;15.346;2023-03-03T03:49:56;11.43;;;9.17;;
35897;SDS011;21997;47.118;15.346;2023-03-03T03:52:22;11.23;;;9.00;;
35897;SDS011;21997;47.118;15.346;2023-03-03T03:54:47;12.23;;;8.20;;
35897;SDS011;21997;47.118;15.346;2023-03-03T03:57:13;12.87;;;8.77;;
35897;SDS011;21997;47.118;15.346;2023-03-03T03:59:38;12.20;;;9.63;;
35897;SDS011;21997;47.118;15.346;2023-03-03T04:02:03;12.70;;;9.37;;
35897;SDS011;21997;47.118;15.346;2023-03-03T04:04:29;15.23;;;9.97;;
35897;SDS011;21997;47.118;15.346;2023-03-03T04:06:54;12.23;;;8.97;;
35897;SDS011;21997;47.118;15.346;2023-03-03T04:09:20;10.67;;;8.67;;
35897;SDS011;21997;47.118;15.346;2023-03-03T04:11:45;13.97;;;8.60;;
35897;SDS011;21997;47.118;15.346;2023-03-03T04:14:10;11.37;;;9.40;;
35897;SDS011;21997;47.118;15.346;2023-03-03T04:16:36;13.47;;;9.27;;
35897;SDS011;21997;47.118;15.346;2023-03-03T04:19:02;12.20;;;8.77;;
35897;SDS011;21997;47.118;15.346;2023-03-03T04:21:27;11.17;;;9.03;;
35897;SDS011;21997;47.118;15.346;2023-03-03T04:23:53;12.87;;;9.60;;
35897;SDS011;21997;47.118;15.346;2023-03-03T04:26:19;16.73;;;9.77;;
35897;SDS011;21997;47.118;15.346;2023-03-03T04:28:44;11.30;;;9.03;;
35897;SDS011;21997;47.118;15.346;2023-03-03T04:31:09;16.43;;;9.40;;
35897;SDS011;21997;47.118;15.346;2023-03-03T04:33:35;14.23;;;9.50;;
35897;SDS011;21997;47.118;15.346;2023-03-03T04:36:01;13.07;;;8.97;;
35897;SDS011;21997;47.118;15.346;2023-03-03T04:38:26;11.37;;;8.73;;
35897;SDS011;21997;47.118;15.346;2023-03-03T04:40:52;12.50;;;8.50;;
35897;SDS011;21997;47.118;15.346;2023-03-03T04:43:17;11.13;;;8.43;;
35897;SDS011;21997;47.118;15.346;2023-03-03T04:45:44;12.90;;;8.60;;
35897;SDS011;21997;47.118;15.346;2023-03-03T04:48:10;10.53;;;8.37;;
35897;SDS011;21997;47.118;15.346;2023-03-03T04:50:35;10.13;;;7.73;;
35897;SDS011;21997;47.118;15.346;2023-03-03T04:53:01;12.33;;;10.43;;
35897;SDS011;21997;47.118;15.346;2023-03-03T04:55:26;12.63;;;9.13;;
35897;SDS011;21997;47.118;15.346;2023-03-03T04:57:51;13.07;;;9.20;;
35897;SDS011;21997;47.118;15.346;2023-03-03T05:00:17;10.27;;;9.07;;
35897;SDS011;21997;47.118;15.346;2023-03-03T05:02:43;12.43;;;9.20;;
35897;SDS011;21997;47.118;15.346;2023-03-03T05:08:33;12.40;;;8.97;;
35897;SDS011;21997;47.118;15.346;2023-03-03T05:10:58;12.30;;;9.70;;
35897;SDS011;21997;47.118;15.346;2023-03-03T05:13:25;10.77;;;8.37;;
35897;SDS011;21997;47.118;15.346;2023-03-03T05:15:54;11.00;;;8.73;;
35897;SDS011;21997;47.118;15.346;2023-03-03T05:18:20;15.27;;;9.60;;
35897;SDS011;21997;47.118;15.346;2023-03-03T05:20:49;14.50;;;8.80;;
35897;SDS011;21997;47.118;15.346;2023-03-03T05:23:17;12.07;;;9.40;;
35897;SDS011;21997;47.118;15.346;2023-03-03T05:25:43;11.40;;;9.07;;
35897;SDS011;21997;47.118;15.346;2023-03-03T05:28:09;11.50;;;9.60;;
35897;SDS011;21997;47.118;15.346;2023-03-03T05:30:35;12.83;;;9.50;;
35897;SDS011;21997;47.118;15.346;2023-03-03T05:33:00;13.27;;;9.93;;
35897;SDS011;21997;47.118;15.346;2023-03-03T05:35:26;12.27;;;9.17;;
35897;SDS011;21997;47.118;15.346;2023-03-03T05:37:51;17.03;;;11.47;;
35897;SDS011;21997;47.118;15.346;2023-03-03T05:40:17;13.60;;;10.40;;
35897;SDS011;21997;47.118;15.346;2023-03-03T05:42:43;12.77;;;9.43;;
35897;SDS011;21997;47.118;15.346;2023-03-03T05:45:09;16.97;;;10.07;;
35897;SDS011;21997;47.118;15.346;2023-03-03T05:47:34;13.17;;;9.27;;
35897;SDS011;21997;47.118;15.346;2023-03-03T05:50:00;12.53;;;10.27;;
35897;SDS011;21997;47.118;15.346;2023-03-03T05:52:25;12.47;;;10.27;;
35897;SDS011;21997;47.118;15.346;2023-03-03T05:54:51;13.17;;;9.77;;
35897;SDS011;21997;47.118;15.346;2023-03-03T05:57:16;11.87;;;9.73;;
35897;SDS011;21997;47.118;15.346;2023-03-03T05:59:41;15.10;;;10.37;;
35897;SDS011;21997;47.118;15.346;2023-03-03T06:02:07;13.23;;;9.87;;
35897;SDS011;21997;47.118;15.346;2023-03-03T06:04:32;13.57;;;9.90;;
35897;SDS011;21997;47.118;15.346;2023-03-03T06:06:58;15.63;;;10.93;;
35897;SDS011;21997;47.118;15.346;2023-03-03T06:09:23;13.90;;;10.10;;
35897;SDS011;21997;47.118;15.346;2023-03-03T06:11:50;14.70;;;10.97;;
35897;SDS011;21997;47.118;15.346;2023-03-03T06:14:17;14.47;;;10.70;;
35897;SDS011;21997;47.118;15.346;2023-03-03T06:16:44;16.93;;;11.03;;
35897;SDS011;21997;47.118;15.346;2023-03-03T06:19:10;15.80;;;11.20;;
35897;SDS011;21997;47.118;15.346;2023-03-03T06:21:35;25.17;;;17.93;;
35897;SDS011;21997;47.118;15.346;2023-03-03T06:24:00;27.53;;;19.40;;
35897;SDS011;21997;47.118;15.346;2023-03-03T06:26:26;24.50;;;16.20;;
35897;SDS011;21997;47.118;15.346;2023-03-03T06:28:51;22.40;;;14.43;;
35897;SDS011;21997;47.118;15.346;2023-03-03T06:31:19;15.80;;;11.87;;
35897;SDS011;21997;47.118;15.346;2023-03-03T06:33:45;20.33;;;12.47;;
35897;SDS011;21997;47.118;15.346;2023-03-03T06:36:10;18.17;;;12.37;;
35897;SDS011;21997;47.118;15.346;2023-03-03T06:38:36;17.23;;;12.00;;
35897;SDS011;21997;47.118;15.346;2023-03-03T06:41:02;18.87;;;12.07;;
35897;SDS011;21997;47.118;15.346;2023-03-03T06:43:31;17.63;;;11.30;;
35897;SDS011;21997;47.118;15.346;2023-03-03T06:45:59;16.47;;;11.73;;
35897;SDS011;21997;47.118;15.346;2023-03-03T06:48:25;19.37;;;12.33;;
35897;SDS011;21997;47.118;15.346;2023-03-03T06:50:50;16.37;;;11.37;;
35897;SDS011;21997;47.118;15.346;2023-03-03T06:53:16;16.27;;;10.83;;
35897;SDS011;21997;47.118;15.346;2023-03-03T06:55:43;14.87;;;11.57;;
35897;SDS011;21997;47.118;15.346;2023-03-03T07:00:42;17.57;;;12.73;;
35897;SDS011;21997;47.118;15.346;2023-03-03T07:03:16;17.63;;;13.40;;
35897;SDS011;21997;47.118;15.346;2023-03-03T07:05:43;21.80;;;14.57;;
35897;SDS011;21997;47.118;15.346;2023-03-03T07:08:16;22.53;;;18.33;;
35897;SDS011;21997;47.118;15.346;2023-03-03T07:10:42;22.00;;;16.73;;
35897;SDS011;21997;47.118;15.346;2023-03-03T07:15:42;14.47;;;12.10;;
35897;SDS011;21997;47.118;15.346;2023-03-03T07:18:18;16.77;;;12.17;;
35897;SDS011;21997;47.118;15.346;2023-03-03T07:20:49;18.27;;;13.93;;
35897;SDS011;21997;47.118;15.346;2023-03-03T07:23:20;21.23;;;16.67;;
35897;SDS011;21997;47.118;15.346;2023-03-03T07:25:47;16.13;;;13.00;;
35897;SDS011;21997;47.118;15.346;2023-03-03T07:30:49;14.60;;;9.50;;
35897;SDS011;21997;47.118;15.346;2023-03-03T07:33:28;12.97;;;10.67;;
35897;SDS011;21997;47.118;15.346;2023-03-03T07:35:58;14.87;;;9.40;;
35897;SDS011;21997;47.118;15.346;2023-03-03T07:40:54;14.93;;;10.33;;
35897;SDS011;21997;47.118;15.346;2023-03-03T07:48:33;13.93;;;10.47;;
35897;SDS011;21997;47.118;15.346;2023-03-03T07:51:03;15.77;;;11.03;;
35897;SDS011;21997;47.118;15.346;2023-03-03T07:53:30;12.77;;;10.03;;
35897;SDS011;21997;47.118;15.346;2023-03-03T07:56:02;13.10;;;11.07;;
35897;SDS011;21997;47.118;15.346;2023-03-03T07:58:35;12.77;;;9.67;;
35897;SDS011;21997;47.118;15.346;2023-03-03T08:04:48;16.37;;;10.57;;
35897;SDS011;21997;47.118;15.346;2023-03-03T08:07:10;14.33;;;10.80;;
35897;SDS011;21997;47.118;15.346;2023-03-03T08:14:56;17.03;;;10.80;;
35897;SDS011;21997;47.118;15.346;2023-03-03T08:17:28;14.27;;;10.40;;
35897;SDS011;21997;47.118;15.346;2023-03-03T08:20:01;16.20;;;10.97;;
35897;SDS011;21997;47.118;15.346;2023-03-03T08:22:49;16.40;;;10.90;;
35897;SDS011;21997;47.118;15.346;2023-03-03T08:25:15;12.67;;;10.37;;
35897;SDS011;21997;47.118;15.346;2023-03-03T08:27:40;13.97;;;10.87;;
35897;SDS011;21997;47.118;15.346;2023-03-03T08:30:05;15.67;;;10.60;;
35897;SDS011;21997;47.118;15.346;2023-03-03T08:32:31;14.73;;;11.37;;
35897;SDS011;21997;47.118;15.346;2023-03-03T08:34:57;20.00;;;11.37;;
35897;SDS011;21997;47.118;15.346;2023-03-03T08:37:22;15.87;;;11.33;;
35897;SDS011;21997;47.118;15.346;2023-03-03T08:39:47;14.57;;;10.53;;
35897;SDS011;21997;47.118;15.346;2023-03-03T08:42:13;17.33;;;10.40;;
35897;SDS011;21997;47.118;15.346;2023-03-03T08:44:38;14.63;;;10.20;;
35897;SDS011;21997;47.118;15.346;2023-03-03T08:47:03;19.00;;;11.17;;
35897;SDS011;21997;47.118;15.346;2023-03-03T08:49:29;16.20;;;11.00;;
35897;SDS011;21997;47.118;15.346;2023-03-03T08:51:55;13.83;;;9.93;;
35897;SDS011;21997;47.118;15.346;2023-03-03T08:54:21;140.97;;;24.17;;
35897;SDS011;21997;47.118;15.346;2023-03-03T08:56:46;15.67;;;9.70;;
35897;SDS011;21997;47.118;15.346;2023-03-03T08:59:11;14.20;;;10.30;;
35897;SDS011;21997;47.118;15.346;2023-03-03T09:01:37;14.93;;;9.50;;
35897;SDS011;21997;47.118;15.346;2023-03-03T09:04:02;20.33;;;10.40;;
35897;SDS011;21997;47.118;15.346;2023-03-03T09:06:28;11.47;;;9.60;;
35897;SDS011;21997;47.118;15.346;2023-03-03T09:08:53;10.90;;;9.17;;
35897;SDS011;21997;47.118;15.346;2023-03-03T09:11:22;10.37;;;8.87;;
35897;SDS011;21997;47.118;15.346;2023-03-03T09:13:50;14.07;;;9.03;;
35897;SDS011;21997;47.118;15.346;2023-03-03T09:16:18;11.60;;;8.10;;
35897;SDS011;21997;47.118;15.346;2023-03-03T09:18:46;10.93;;;8.13;;
35897;SDS011;21997;47.118;15.346;2023-03-03T09:21:20;13.90;;;8.67;;
35897;SDS011;21997;47.118;15.346;2023-03-03T09:31:25;10.07;;;8.07;;
35897;SDS011;21997;47.118;15.346;2023-03-03T09:34:09;11.30;;;8.30;;
35897;SDS011;21997;47.118;15.346;2023-03-03T09:36:38;9.80;;;7.43;;
35897;SDS011;21997;47.118;15.346;2023-03-03T09:39:23;18.95;;;7.90;;
35897;SDS011;21997;47.118;15.346;2023-03-03T10:08:14;8.50;;;7.55;;
35897;SDS011;21997;47.118;15.346;2023-03-03T10:19:40;7.77;;;6.33;;
35897;SDS011;21997;47.118;15.346;2023-03-03T10:25:07;17.93;;;8.17;;
35897;SDS011;21997;47.118;15.346;2023-03-03T10:39:17;7.73;;;5.73;;
35897;SDS011;21997;47.118;15.346;2023-03-03T10:50:29;9.83;;;6.33;;
35897;SDS011;21997;47.118;15.346;2023-03-03T10:58:28;10.77;;;6.97;;
35897;SDS011;21997;47.118;15.346;2023-03-03T11:10:27;9.53;;;7.73;;
35897;SDS011;21997;47.118;15.346;2023-03-03T11:32:04;7.57;;;6.20;;
35897;SDS011;21997;47.118;15.346;2023-03-03T11:37:22;10.50;;;6.93;;
35897;SDS011;21997;47.118;15.346;2023-03-03T11:39:52;7.47;;;5.90;;
35897;SDS011;21997;47.118;15.346;2023-03-03T11:44:54;9.70;;;6.83;;
35897;SDS011;21997;47.118;15.346;2023-03-03T11:52:42;9.93;;;6.97;;
35897;SDS011;21997;47.118;15.346;2023-03-03T11:55:38;10.50;;;6.47;;
35897;SDS011;21997;47.118;15.346;2023-03-03T11:58:07;8.87;;;6.70;;
35897;SDS011;21997;47.118;15.346;2023-03-03T12:00:51;9.40;;;5.87;;
35897;SDS011;21997;47.118;15.346;2023-03-03T12:11:16;7.75;;;6.07;;
35897;SDS011;21997;47.118;15.346;2023-03-03T12:14:13;9.32;;;6.20;;
35897;SDS011;21997;47.118;15.346;2023-03-03T12:25:02;12.50;;;7.17;;
35897;SDS011;21997;47.118;15.346;2023-03-03T12:33:09;6.93;;;5.73;;
35897;SDS011;21997;47.118;15.346;2023-03-03T12:41:05;8.17;;;6.60;;
35897;SDS011;21997;47.118;15.346;2023-03-03T12:46:19;7.67;;;6.47;;
35897;SDS011;21997;47.118;15.346;2023-03-03T12:48:49;6.13;;;5.53;;
35897;SDS011;21997;47.118;15.346;2023-03-03T12:51:18;8.37;;;6.77;;
35897;SDS011;21997;47.118;15.346;2023-03-03T12:56:25;14.20;;;6.53;;
35897;SDS011;21997;47.118;15.346;2023-03-03T13:12:43;8.87;;;6.53;;
35897;SDS011;21997;47.118;15.346;2023-03-03T13:15:19;8.87;;;6.77;;
35897;SDS011;21997;47.118;15.346;2023-03-03T13:18:24;9.20;;;6.47;;
35897;SDS011;21997;47.118;15.346;2023-03-03T13:24:16;13.13;;;8.30;;
35897;SDS011;21997;47.118;15.346;2023-03-03T13:27:10;9.80;;;7.00;;
35897;SDS011;21997;47.118;15.346;2023-03-03T13:29:41;8.40;;;6.07;;
35897;SDS011;21997;47.118;15.346;2023-03-03T13:32:22;10.53;;;6.30;;
35897;SDS011;21997;47.118;15.346;2023-03-03T13:34:56;12.43;;;6.67;;
35897;SDS011;21997;47.118;15.346;2023-03-03T13:37:43;12.67;;;7.17;;
35897;SDS011;21997;47.118;15.346;2023-03-03T13:40:14;8.37;;;7.17;;
35897;SDS011;21997;47.118;15.346;2023-03-03T13:48:12;7.53;;;5.83;;
35897;SDS011;21997;47.118;15.346;2023-03-03T13:50:46;7.63;;;6.13;;
35897;SDS011;21997;47.118;15.346;2023-03-03T13:59:09;9.77;;;5.90;;
35897;SDS011;21997;47.118;15.346;2023-03-03T14:01:51;13.83;;;7.03;;
35897;SDS011;21997;47.118;15.346;2023-03-03T14:07:22;7.47;;;6.50;;
35897;SDS011;21997;47.118;15.346;2023-03-03T14:10:02;7.67;;;5.77;;
35897;SDS011;21997;47.118;15.346;2023-03-03T14:15:25;8.20;;;5.50;;
35897;SDS011;21997;47.118;15.346;2023-03-03T14:20:49;8.00;;;6.03;;
35897;SDS011;21997;47.118;15.346;2023-03-03T14:28:23;8.30;;;5.57;;
35897;SDS011;21997;47.118;15.346;2023-03-03T14:30:55;7.00;;;5.73;;
35897;SDS011;21997;47.118;15.346;2023-03-03T14:33:22;9.20;;;5.93;;
35897;SDS011;21997;47.118;15.346;2023-03-03T14:38:21;8.57;;;5.90;;
35897;SDS011;21997;47.118;15.346;2023-03-03T14:40:48;9.30;;;5.97;;
35897;SDS011;21997;47.118;15.346;2023-03-03T14:43:34;14.87;;;6.27;;
35897;SDS011;21997;47.118;15.346;2023-03-03T14:48:58;9.73;;;6.23;;
35897;SDS011;21997;47.118;15.346;2023-03-03T14:54:10;8.77;;;6.03;;
35897;SDS011;21997;47.118;15.346;2023-03-03T14:56:53;7.40;;;5.20;;
35897;SDS011;21997;47.118;15.346;2023-03-03T14:59:25;9.07;;;5.47;;
35897;SDS011;21997;47.118;15.346;2023-03-03T15:04:38;10.57;;;6.57;;
35897;SDS011;21997;47.118;15.346;2023-03-03T15:09:50;10.93;;;6.00;;
35897;SDS011;21997;47.118;15.346;2023-03-03T15:12:17;6.33;;;5.63;;
35897;SDS011;21997;47.118;15.346;2023-03-03T15:14:49;12.43;;;5.90;;
35897;SDS011;21997;47.118;15.346;2023-03-03T15:17:23;8.87;;;6.80;;
35897;SDS011;21997;47.118;15.346;2023-03-03T15:22:36;8.80;;;6.10;;
35897;SDS011;21997;47.118;15.346;2023-03-03T15:25:25;10.33;;;6.43;;
35897;SDS011;21997;47.118;15.346;2023-03-03T15:34:08;9.87;;;5.83;;
35897;SDS011;21997;47.118;15.346;2023-03-03T15:36:47;8.67;;;5.83;;
35897;SDS011;21997;47.118;15.346;2023-03-03T15:42:41;8.07;;;6.00;;
35897;SDS011;21997;47.118;15.346;2023-03-03T15:47:52;9.77;;;5.67;;
35897;SDS011;21997;47.118;15.346;2023-03-03T15:56:27;9.03;;;6.30;;
35897;SDS011;21997;47.118;15.346;2023-03-03T16:02:17;6.60;;;5.80;;
35897;SDS011;21997;47.118;15.346;2023-03-03T16:07:28;7.67;;;5.73;;
35897;SDS011;21997;47.118;15.346;2023-03-03T16:15:34;7.80;;;5.43;;
35897;SDS011;21997;47.118;15.346;2023-03-03T16:34:53;7.67;;;6.87;;
35897;SDS011;21997;47.118;15.346;2023-03-03T16:37:49;19.87;;;7.30;;
35897;SDS011;21997;47.118;15.346;2023-03-03T16:43:05;8.03;;;5.80;;
35897;SDS011;21997;47.118;15.346;2023-03-03T16:45:44;11.27;;;6.30;;
35897;SDS011;21997;47.118;15.346;2023-03-03T16:53:53;15.03;;;10.33;;
35897;SDS011;21997;47.118;15.346;2023-03-03T16:56:34;12.67;;;8.97;;
35897;SDS011;21997;47.118;15.346;2023-03-03T17:08:06;15.07;;;9.17;;
35897;SDS011;21997;47.118;15.346;2023-03-03T17:17:08;15.23;;;7.87;;
35897;SDS011;21997;47.118;15.346;2023-03-03T17:25:22;7.10;;;6.17;;
35897;SDS011;21997;47.118;15.346;2023-03-03T17:39:29;10.10;;;6.70;;
35897;SDS011;21997;47.118;15.346;2023-03-03T17:45:08;12.87;;;8.60;;
35897;SDS011;21997;47.118;15.346;2023-03-03T17:50:41;11.03;;;7.53;;
35897;SDS011;21997;47.118;15.346;2023-03-03T17:56:12;12.00;;;7.13;;
35897;SDS011;21997;47.118;15.346;2023-03-03T18:04:14;12.03;;;6.30;;
35897;SDS011;21997;47.118;15.346;2023-03-03T18:06:47;10.63;;;6.33;;
35897;SDS011;21997;47.118;15.346;2023-03-03T18:15:16;11.00;;;7.90;;
35897;SDS011;21997;47.118;15.346;2023-03-03T18:18:15;8.43;;;7.53;;
35897;SDS011;21997;47.118;15.346;2023-03-03T18:21:15;11.53;;;7.00;;
35897;SDS011;21997;47.118;15.346;2023-03-03T18:23:44;11.33;;;8.87;;
35897;SDS011;21997;47.118;15.346;2023-03-03T18:42:40;10.27;;;7.60;;
35897;SDS011;21997;47.118;15.346;2023-03-03T18:45:45;14.23;;;9.73;;
35897;SDS011;21997;47.118;15.346;2023-03-03T18:50:35;12.60;;;8.27;;
35897;SDS011;21997;47.118;15.346;2023-03-03T18:55:45;17.50;;;9.43;;
35897;SDS011;21997;47.118;15.346;2023-03-03T19:01:00;14.23;;;9.80;;
35897;SDS011;21997;47.118;15.346;2023-03-03T19:03:36;11.97;;;8.93;;
35897;SDS011;21997;47.118;15.346;2023-03-03T19:06:29;11.63;;;7.77;;
35897;SDS011;21997;47.118;15.346;2023-03-03T19:08:56;11.63;;;7.73;;
35897;SDS011;21997;47.118;15.346;2023-03-03T19:14:46;14.60;;;8.47;;
35897;SDS011;21997;47.118;15.346;2023-03-03T19:16:56;13.43;;;8.03;;
35897;SDS011;21997;47.118;15.346;2023-03-03T19:20:04;12.77;;;9.53;;
35897;SDS011;21997;47.118;15.346;2023-03-03T19:22:49;18.87;;;11.80;;
35897;SDS011;21997;47.118;15.346;2023-03-03T19:25:26;22.83;;;12.37;;
35897;SDS011;21997;47.118;15.346;2023-03-03T19:30:56;24.80;;;17.17;;
35897;SDS011;21997;47.118;15.346;2023-03-03T19:36:13;25.07;;;15.80;;
35897;SDS011;21997;47.118;15.346;2023-03-03T19:46:56;19.80;;;13.23;;
35897;SDS011;21997;47.118;15.346;2023-03-03T19:52:28;20.03;;;13.80;;
35897;SDS011;21997;47.118;15.346;2023-03-03T20:01:04;18.27;;;11.97;;
35897;SDS011;21997;47.118;15.346;2023-03-03T20:03:40;17.23;;;11.93;;
35897;SDS011;21997;47.118;15.346;2023-03-03T20:09:03;15.47;;;10.67;;
35897;SDS011;21997;47.118;15.346;2023-03-03T20:11:57;12.57;;;10.30;;
35897;SDS011;21997;47.118;15.346;2023-03-03T20:14:45;19.17;;;10.70;;
35897;SDS011;21997;47.118;15.346;2023-03-03T20:31:13;12.73;;;10.23;;
35897;SDS011;21997;47.118;15.346;2023-03-03T20:34:43;18.70;;;11.67;;
35897;SDS011;21997;47.118;15.346;2023-03-03T20:42:48;15.10;;;10.27;;
35897;SDS011;21997;47.118;15.346;2023-03-03T20:57:25;15.17;;;11.03;;
35897;SDS011;21997;47.118;15.346;2023-03-03T20:59:47;19.03;;;11.33;;
35897;SDS011;21997;47.118;15.346;2023-03-03T21:05:13;18.33;;;12.90;;
35897;SDS011;21997;47.118;15.346;2023-03-03T21:08:16;22.47;;;13.20;;
35897;SDS011;21997;47.118;15.346;2023-03-03T21:10:36;23.60;;;13.87;;
35897;SDS011;21997;47.118;15.346;2023-03-03T21:16:04;19.27;;;13.77;;
35897;SDS011;21997;47.118;15.346;2023-03-03T21:18:30;18.80;;;10.80;;
35897;SDS011;21997;47.118;15.346;2023-03-03T21:20:56;17.93;;;10.30;;
35897;SDS011;21997;47.118;15.346;2023-03-03T21:23:22;14.03;;;8.73;;
35897;SDS011;21997;47.118;15.346;2023-03-03T21:28:20;14.23;;;8.93;;
35897;SDS011;21997;47.118;15.346;2023-03-03T21:36:13;12.20;;;8.73;;
35897;SDS011;21997;47.118;15.346;2023-03-03T21:38:43;10.40;;;7.50;;
35897;SDS011;21997;47.118;15.346;2023-03-03T21:41:10;12.33;;;8.33;;
35897;SDS011;21997;47.118;15.346;2023-03-03T21:43:37;11.37;;;8.37;;
35897;SDS011;21997;47.118;15.346;2023-03-03T21:46:05;11.90;;;7.97;;
35897;SDS011;21997;47.118;15.346;2023-03-03T21:48:31;9.53;;;7.87;;
35897;SDS011;21997;47.118;15.346;2023-03-03T21:50:56;14.53;;;8.60;;
35897;SDS011;21997;47.118;15.346;2023-03-03T21:53:22;12.27;;;8.27;;
35897;SDS011;21997;47.118;15.346;2023-03-03T21:55:51;11.77;;;8.07;;
35897;SDS011;21997;47.118;15.346;2023-03-03T21:58:17;11.47;;;8.50;;
35897;SDS011;21997;47.118;15.346;2023-03-03T22:00:43;11.53;;;7.97;;
35897;SDS011;21997;47.118;15.346;2023-03-03T22:03:09;13.80;;;9.27;;
35897;SDS011;21997;47.118;15.346;2023-03-03T22:05:39;13.17;;;8.83;;
35897;SDS011;21997;47.118;15.346;2023-03-03T22:08:08;16.40;;;10.27;;
35897;SDS011;21997;47.118;15.346;2023-03-03T22:10:34;16.23;;;10.37;;
35897;SDS011;21997;47.118;15.346;2023-03-03T22:12:59;16.17;;;9.80;;
35897;SDS011;21997;47.118;15.346;2023-03-03T22:15:25;15.63;;;9.93;;